Terminal Aerodrome Forecast
Issued by NWS Milwaukee/Sullivan, WI

Home | Current Version | Previous Version | Text Only | Print | Product List | Glossary On
Versions: 1 2 3 4 5 6 7 8 9 10 11 12 13 14 15 16 17 18 19 20 21 22 23 24 25 26 27 28 29 30 31 32 33 34 35 36 37 38 39 40 41 42 43 44 45 46 47 48 49 50
000
FTUS43 KMKX 010101 AAA
TAFMKE
TAF AMD
KMKE 010101Z 0101/0206 02005KT P6SM BKN050
     FM010400 03006KT 6SM BR SCT050
     FM011400 36006KT P6SM SCT150
     FM012000 06010KT P6SM SCT200
     FM020200 02006KT P6SM FEW250=

USA.gov is the U.S. government's official web portal to all federal, state and local government web resources and services.